Time;durP1;ratioP1;P1;durP2;ratioP2;P2;SDS_P1;SDS_P2;PMS_P1;PMS_P2;Temp;Humidity;BMP_temperature;BMP_pressure;BME280_temperature;BME280_humidity;BME280_pressure;Samples;Min_cycle;Max_cycle;Signal;HPM_P1;HPM_P2
2022/09/22 00:02:03;;;;;;;1.85;1.48;;;;;;;;;;5039635;28;20036;-78
2022/09/22 00:04:29;;;;;;;1.67;1.58;;;;;;;;;;5040688;28;20045;-78
2022/09/22 00:06:56;;;;;;;2.47;1.80;;;;;;;;;;5053215;28;20099;-78
2022/09/22 00:09:22;;;;;;;3.72;2.05;;;;;;;;;;5053300;28;20115;-79
2022/09/22 00:11:49;;;;;;;5.00;2.30;;;;;;;;;;5060454;28;20052;-78
2022/09/22 00:14:20;;;;;;;3.50;2.60;;;;;;;;;;5053202;28;20037;-78
2022/09/22 00:16:47;;;;;;;5.97;3.13;;;;;;;;;;5053304;28;20090;-78
2022/09/22 00:19:18;;;;;;;8.13;4.38;;;;;;;;;;5052689;28;20083;-78
2022/09/22 00:21:45;;;;;;;6.60;3.28;;;;;;;;;;5054408;28;20366;-78
2022/09/22 00:24:11;;;;;;;5.55;3.40;;;;;;;;;;5058712;28;20037;-78
2022/09/22 00:26:38;;;;;;;7.32;4.00;;;;;;;;;;5053127;28;20110;-78
2022/09/22 00:29:08;;;;;;;7.05;4.55;;;;;;;;;;5065358;28;20037;-78
2022/09/22 00:31:34;;;;;;;4.55;3.70;;;;;;;;;;5072331;28;20042;-78
2022/09/22 00:34:01;;;;;;;6.50;3.95;;;;;;;;;;5052806;28;20491;-78
2022/09/22 00:36:27;;;;;;;9.50;4.57;;;;;;;;;;5035302;28;20041;-78
2022/09/22 00:38:55;;;;;;;6.72;4.22;;;;;;;;;;5052686;28;20044;-78
2022/09/22 00:41:29;;;;;;;9.20;4.65;;;;;;;;;;5053348;28;20045;-78
2022/09/22 00:44:16;;;;;;;7.88;4.43;;;;;;;;;;5057339;28;20116;-78
2022/09/22 00:46:43;;;;;;;3.50;2.20;;;;;;;;;;5034780;28;20064;-78
2022/09/22 00:49:12;;;;;;;1.98;1.60;;;;;;;;;;5052228;28;20362;-78
2022/09/22 00:51:39;;;;;;;4.35;2.40;;;;;;;;;;5061325;28;20431;-78
2022/09/22 00:54:06;;;;;;;2.92;1.58;;;;;;;;;;5050374;28;20101;-78
2022/09/22 00:56:53;;;;;;;1.75;1.00;;;;;;;;;;5034992;28;20048;-78
2022/09/22 00:59:21;;;;;;;1.40;1.30;;;;;;;;;;5052630;28;20045;-78
2022/09/22 01:01:47;;;;;;;1.50;1.40;;;;;;;;;;5056851;28;20037;-78
2022/09/22 01:04:16;;;;;;;1.48;1.38;;;;;;;;;;5065739;28;20045;-78
2022/09/22 01:06:43;;;;;;;1.98;1.40;;;;;;;;;;5053078;28;20041;-78
2022/09/22 01:09:09;;;;;;;2.78;1.50;;;;;;;;;;5062517;28;20115;-78
2022/09/22 01:11:37;;;;;;;3.58;2.60;;;;;;;;;;5068164;28;20084;-78
2022/09/22 01:14:03;;;;;;;8.07;4.07;;;;;;;;;;5071473;28;20183;-78
2022/09/22 01:16:39;;;;;;;2.80;2.00;;;;;;;;;;5075352;28;20119;-78
2022/09/22 01:19:17;;;;;;;2.33;1.88;;;;;;;;;;5072006;28;20080;-78
2022/09/22 01:21:48;;;;;;;5.78;3.10;;;;;;;;;;5052923;28;20514;-78
2022/09/22 01:24:37;;;;;;;7.47;5.57;;;;;;;;;;5076006;28;20048;-78
2022/09/22 01:27:19;;;;;;;7.65;5.47;;;;;;;;;;5058031;28;20477;-78
2022/09/22 01:30:18;;;;;;;10.35;6.60;;;;;;;;;;5075664;28;20041;-78
2022/09/22 01:33:02;;;;;;;10.32;6.93;;;;;;;;;;4969941;28;20058;-78
2022/09/22 01:35:49;;;;;;;9.93;7.30;;;;;;;;;;4974367;28;20059;-78
2022/09/22 01:38:22;;;;;;;12.90;7.75;;;;;;;;;;4975195;28;20050;-78
2022/09/22 01:40:51;;;;;;;12.23;8.02;;;;;;;;;;4971602;28;20052;-78
2022/09/22 01:43:20;;;;;;;10.25;7.70;;;;;;;;;;4955081;28;20062;-78
2022/09/22 01:45:47;;;;;;;14.15;8.32;;;;;;;;;;4955540;29;20039;-78
2022/09/22 01:48:16;;;;;;;11.93;7.90;;;;;;;;;;4955466;29;20452;-78
2022/09/22 01:50:44;;;;;;;11.65;9.38;;;;;;;;;;4971044;28;20066;-78
2022/09/22 01:53:13;;;;;;;12.70;9.68;;;;;;;;;;4961233;28;20058;-78
2022/09/22 01:55:41;;;;;;;11.50;8.55;;;;;;;;;;4974042;28;20182;-78
2022/09/22 01:58:19;;;;;;;10.55;8.23;;;;;;;;;;4974408;28;20089;-78
2022/09/22 02:00:49;;;;;;;10.98;8.23;;;;;;;;;;4966696;28;20039;-78
2022/09/22 02:03:19;;;;;;;13.35;8.38;;;;;;;;;;4965225;28;20559;-78
2022/09/22 02:05:48;;;;;;;11.27;7.93;;;;;;;;;;4958800;28;20066;-78
2022/09/22 02:08:17;;;;;;;13.38;8.80;;;;;;;;;;5012662;28;20064;-78
2022/09/22 02:10:45;;;;;;;11.63;8.82;;;;;;;;;;5061332;28;20054;-78
2022/09/22 02:13:11;;;;;;;12.38;9.10;;;;;;;;;;5056153;28;20489;-78
2022/09/22 02:18:27;;;;;;;13.88;8.90;;;;;;;;;;5071209;28;20048;-78
2022/09/22 02:20:53;;;;;;;12.07;8.23;;;;;;;;;;5063560;28;20065;-78
2022/09/22 02:23:19;;;;;;;11.30;8.40;;;;;;;;;;5063505;28;20045;-78
2022/09/22 02:25:45;;;;;;;11.50;8.52;;;;;;;;;;5054037;28;20045;-78
2022/09/22 02:28:13;;;;;;;14.57;9.40;;;;;;;;;;5054611;28;20508;-78
2022/09/22 02:30:40;;;;;;;13.13;8.93;;;;;;;;;;5042461;28;20236;-78
2022/09/22 02:33:07;;;;;;;14.35;8.82;;;;;;;;;;5055613;28;20048;-78
2022/09/22 02:35:35;;;;;;;11.30;8.90;;;;;;;;;;5074441;28;20504;-78
2022/09/22 02:38:12;;;;;;;14.00;9.10;;;;;;;;;;5074712;28;20048;-78
2022/09/22 02:40:45;;;;;;;9.65;8.02;;;;;;;;;;5074597;28;20044;-78
2022/09/22 02:43:26;;;;;;;11.88;7.97;;;;;;;;;;5067589;28;20048;-78
2022/09/22 02:46:18;;;;;;;13.75;8.60;;;;;;;;;;5074672;28;20045;-78
2022/09/22 02:48:49;;;;;;;14.15;7.93;;;;;;;;;;5058898;28;20057;-78
2022/09/22 02:51:17;;;;;;;10.20;7.60;;;;;;;;;;5054249;28;20061;-78
2022/09/22 02:53:43;;;;;;;10.02;8.32;;;;;;;;;;5066721;28;20386;-78
2022/09/22 02:56:09;;;;;;;9.40;7.53;;;;;;;;;;5057943;28;20045;-78
2022/09/22 02:58:36;;;;;;;12.00;7.45;;;;;;;;;;5074156;28;20047;-78
2022/09/22 03:01:02;;;;;;;12.27;8.27;;;;;;;;;;5065996;28;20041;-79
2022/09/22 03:03:28;;;;;;;9.40;7.47;;;;;;;;;;5054199;28;20146;-78
2022/09/22 03:05:54;;;;;;;10.30;6.72;;;;;;;;;;5067863;28;20777;-78
2022/09/22 03:08:20;;;;;;;9.25;6.88;;;;;;;;;;5074058;28;20097;-78
2022/09/22 03:10:46;;;;;;;13.43;7.82;;;;;;;;;;5062271;28;20047;-78
2022/09/22 03:13:12;;;;;;;6.82;5.38;;;;;;;;;;5065721;28;20122;-78
2022/09/22 03:15:38;;;;;;;7.55;6.10;;;;;;;;;;5035981;28;20045;-78
2022/09/22 03:18:04;;;;;;;8.75;7.18;;;;;;;;;;5054195;28;20041;-78
2022/09/22 03:20:31;;;;;;;8.63;5.80;;;;;;;;;;5056361;28;20390;-78
2022/09/22 03:22:57;;;;;;;6.35;4.63;;;;;;;;;;5068011;28;20099;-78
2022/09/22 03:25:23;;;;;;;6.30;4.10;;;;;;;;;;5036681;28;20400;-78
2022/09/22 03:27:49;;;;;;;5.28;4.25;;;;;;;;;;5059567;28;20143;-78
2022/09/22 03:30:15;;;;;;;5.63;4.32;;;;;;;;;;5057882;28;20047;-78
2022/09/22 03:32:41;;;;;;;5.95;3.78;;;;;;;;;;5055788;28;20377;-78
2022/09/22 03:35:08;;;;;;;4.90;3.60;;;;;;;;;;5055324;28;20048;-78
2022/09/22 03:37:34;;;;;;;4.47;3.33;;;;;;;;;;5031496;28;20119;-78
2022/09/22 03:40:00;;;;;;;4.28;3.30;;;;;;;;;;5069171;28;20090;-78
2022/09/22 03:42:27;;;;;;;5.38;4.10;;;;;;;;;;5054069;28;20068;-78
2022/09/22 03:44:53;;;;;;;5.20;3.97;;;;;;;;;;5073810;28;20041;-78
2022/09/22 03:47:19;;;;;;;3.35;2.90;;;;;;;;;;5073207;28;20385;-78
2022/09/22 03:49:45;;;;;;;3.97;3.05;;;;;;;;;;5072805;28;20049;-78
2022/09/22 03:52:11;;;;;;;4.60;3.30;;;;;;;;;;5055630;28;20084;-78
2022/09/22 03:54:37;;;;;;;6.90;4.57;;;;;;;;;;5036262;28;20049;-78
2022/09/22 03:57:03;;;;;;;6.70;4.90;;;;;;;;;;5035092;28;20387;-78
2022/09/22 03:59:30;;;;;;;8.60;5.57;;;;;;;;;;5044461;28;20049;-78
2022/09/22 04:01:56;;;;;;;7.38;5.60;;;;;;;;;;5053416;28;20051;-78
2022/09/22 04:04:22;;;;;;;8.80;5.93;;;;;;;;;;5053661;28;20049;-78
2022/09/22 04:06:48;;;;;;;8.73;5.40;;;;;;;;;;5064013;28;20128;-78
2022/09/22 04:09:16;;;;;;;6.80;5.53;;;;;;;;;;5071948;28;20040;-78
2022/09/22 04:11:42;;;;;;;7.65;5.85;;;;;;;;;;5073603;28;20049;-79
2022/09/22 04:14:08;;;;;;;8.07;6.32;;;;;;;;;;5058656;28;20147;-78
2022/09/22 04:16:35;;;;;;;8.82;5.78;;;;;;;;;;5035037;28;20087;-78
2022/09/22 04:19:03;;;;;;;8.43;6.00;;;;;;;;;;5039507;28;20049;-78
2022/09/22 04:21:30;;;;;;;7.32;5.28;;;;;;;;;;5034651;28;20148;-79
2022/09/22 04:23:56;;;;;;;9.00;6.30;;;;;;;;;;5052597;28;20037;-78
2022/09/22 04:26:22;;;;;;;8.50;6.00;;;;;;;;;;5053254;28;20041;-78
2022/09/22 04:28:48;;;;;;;6.35;5.43;;;;;;;;;;5035344;28;20049;-78
2022/09/22 04:31:15;;;;;;;7.38;5.43;;;;;;;;;;5053068;28;20049;-78
2022/09/22 04:33:41;;;;;;;7.25;4.93;;;;;;;;;;5034868;28;20033;-78
2022/09/22 04:36:07;;;;;;;5.80;5.10;;;;;;;;;;5034957;28;20435;-78
2022/09/22 04:38:33;;;;;;;6.18;5.05;;;;;;;;;;5052794;28;20037;-78
2022/09/22 04:41:00;;;;;;;7.80;5.15;;;;;;;;;;5052919;28;20051;-78
2022/09/22 04:43:26;;;;;;;5.97;3.92;;;;;;;;;;5060317;28;20523;-78
2022/09/22 04:45:52;;;;;;;7.13;4.05;;;;;;;;;;5055433;28;20057;-78
2022/09/22 04:48:18;;;;;;;3.70;2.95;;;;;;;;;;5053380;28;20045;-77
2022/09/22 04:50:45;;;;;;;4.30;3.20;;;;;;;;;;5038057;28;20075;-79
2022/09/22 04:53:11;;;;;;;4.18;3.28;;;;;;;;;;5056356;28;20045;-78
2022/09/22 04:55:37;;;;;;;4.65;3.60;;;;;;;;;;5056705;28;20049;-78
2022/09/22 04:58:03;;;;;;;6.13;4.28;;;;;;;;;;5038566;28;20044;-78
2022/09/22 05:00:30;;;;;;;5.15;3.70;;;;;;;;;;5074592;28;20123;-78
2022/09/22 05:02:56;;;;;;;5.53;4.38;;;;;;;;;;5068177;28;20409;-78
2022/09/22 05:05:23;;;;;;;4.25;3.60;;;;;;;;;;5056364;28;20076;-78
2022/09/22 05:07:53;;;;;;;4.18;3.20;;;;;;;;;;5075199;28;20045;-78
2022/09/22 05:10:20;;;;;;;5.13;3.33;;;;;;;;;;5031578;28;20045;-79
2022/09/22 05:12:47;;;;;;;3.28;2.97;;;;;;;;;;5056608;28;20127;-79
2022/09/22 05:15:13;;;;;;;4.15;3.50;;;;;;;;;;5055853;28;20462;-79
2022/09/22 05:17:50;;;;;;;4.80;3.53;;;;;;;;;;5056039;28;20048;-79
2022/09/22 05:20:16;;;;;;;6.47;4.05;;;;;;;;;;5056520;28;20033;-78
2022/09/22 05:22:43;;;;;;;6.95;5.10;;;;;;;;;;5065385;28;20136;-79
2022/09/22 05:25:10;;;;;;;9.65;4.90;;;;;;;;;;5076006;28;20473;-79
2022/09/22 05:27:37;;;;;;;7.95;4.90;;;;;;;;;;5057776;28;20071;-79
2022/09/22 05:30:04;;;;;;;7.65;5.55;;;;;;;;;;5056373;28;20485;-79
2022/09/22 05:32:30;;;;;;;7.18;5.30;;;;;;;;;;5065423;28;20048;-79
2022/09/22 05:34:56;;;;;;;7.45;5.40;;;;;;;;;;5057448;28;20500;-79
2022/09/22 05:37:23;;;;;;;6.25;4.85;;;;;;;;;;5075827;28;20505;-79
2022/09/22 05:39:49;;;;;;;7.28;4.75;;;;;;;;;;5066091;28;20091;-79
2022/09/22 05:42:15;;;;;;;9.07;6.47;;;;;;;;;;5040899;28;20074;-79
2022/09/22 05:44:41;;;;;;;10.35;5.97;;;;;;;;;;5038231;28;20362;-79
2022/09/22 05:47:07;;;;;;;15.50;7.90;;;;;;;;;;5044020;28;20048;-79
2022/09/22 05:49:33;;;;;;;19.88;8.90;;;;;;;;;;5066097;28;20060;-81
2022/09/22 05:52:02;;;;;;;16.67;7.82;;;;;;;;;;5055610;28;20133;-79
2022/09/22 05:54:28;;;;;;;14.18;8.98;;;;;;;;;;5055694;28;20049;-78
2022/09/22 05:56:55;;;;;;;11.30;7.03;;;;;;;;;;5041593;28;20036;-80
2022/09/22 05:59:21;;;;;;;12.95;7.40;;;;;;;;;;5073940;28;20508;-78
2022/09/22 06:01:47;;;;;;;12.23;6.55;;;;;;;;;;5074776;28;20092;-78
2022/09/22 06:04:13;;;;;;;14.15;7.70;;;;;;;;;;5075354;28;20051;-78
2022/09/22 06:06:40;;;;;;;14.43;7.68;;;;;;;;;;5043288;28;20044;-78
2022/09/22 06:09:07;;;;;;;12.32;8.00;;;;;;;;;;5051018;28;20051;-78
2022/09/22 06:11:33;;;;;;;16.50;8.18;;;;;;;;;;5057695;28;20076;-78
2022/09/22 06:13:59;;;;;;;15.60;9.13;;;;;;;;;;5044260;28;20049;-78
2022/09/22 06:16:25;;;;;;;15.48;8.80;;;;;;;;;;5046517;28;20052;-77
2022/09/22 06:18:51;;;;;;;14.15;7.78;;;;;;;;;;5048846;28;20055;-76
2022/09/22 06:21:17;;;;;;;16.90;7.70;;;;;;;;;;5056963;28;20044;-77
2022/09/22 06:23:43;;;;;;;12.52;7.35;;;;;;;;;;5066353;28;20050;-77
2022/09/22 06:26:10;;;;;;;11.40;6.97;;;;;;;;;;5067832;28;20056;-76
2022/09/22 06:28:36;;;;;;;11.80;7.05;;;;;;;;;;5058968;28;20059;-76
2022/09/22 06:31:02;;;;;;;11.57;6.57;;;;;;;;;;5057088;28;20045;-76
2022/09/22 06:33:28;;;;;;;8.50;6.20;;;;;;;;;;5040392;28;20090;-76
2022/09/22 06:35:56;;;;;;;10.40;6.10;;;;;;;;;;5039362;28;20370;-76
2022/09/22 06:38:22;;;;;;;11.00;5.85;;;;;;;;;;5056482;28;20563;-77
2022/09/22 06:40:48;;;;;;;7.72;5.88;;;;;;;;;;5064731;28;20045;-76
2022/09/22 06:43:19;;;;;;;9.52;5.60;;;;;;;;;;5061964;28;20531;-76
2022/09/22 06:45:45;;;;;;;9.60;6.30;;;;;;;;;;5075298;28;20508;-77
2022/09/22 06:48:12;;;;;;;7.88;5.60;;;;;;;;;;5068660;28;20493;-76
2022/09/22 06:50:39;;;;;;;9.48;6.05;;;;;;;;;;5068764;28;20049;-76
2022/09/22 06:53:06;;;;;;;11.75;6.00;;;;;;;;;;5081433;28;20112;-76
2022/09/22 06:55:32;;;;;;;10.80;6.43;;;;;;;;;;5074380;28;20116;-76
2022/09/22 06:57:59;;;;;;;11.10;6.10;;;;;;;;;;5060267;28;20053;-75
2022/09/22 07:00:35;;;;;;;10.13;6.40;;;;;;;;;;5038251;28;20508;-76
2022/09/22 07:03:19;;;;;;;11.75;5.97;;;;;;;;;;5042970;28;20104;-78
2022/09/22 07:05:55;;;;;;;8.63;5.25;;;;;;;;;;5075732;28;20053;-77
2022/09/22 07:08:22;;;;;;;10.70;5.90;;;;;;;;;;5060452;28;20048;-78
2022/09/22 07:11:10;;;;;;;7.90;5.00;;;;;;;;;;5078535;28;20076;-78
2022/09/22 07:13:38;;;;;;;13.07;5.57;;;;;;;;;;5080964;28;20500;-77
2022/09/22 07:16:14;;;;;;;10.00;5.28;;;;;;;;;;5076851;28;20052;-77
2022/09/22 07:18:42;;;;;;;7.68;4.90;;;;;;;;;;5074255;28;20390;-78
2022/09/22 07:21:19;;;;;;;10.35;4.43;;;;;;;;;;5066076;28;20728;-76
2022/09/22 07:23:48;;;;;;;7.82;4.53;;;;;;;;;;5037737;28;20048;-80
2022/09/22 07:26:15;;;;;;;6.95;4.70;;;;;;;;;;5038106;28;20052;-77
2022/09/22 07:28:41;;;;;;;8.85;5.00;;;;;;;;;;5056862;28;20098;-77
2022/09/22 07:31:09;;;;;;;6.95;4.10;;;;;;;;;;5042323;28;20045;-81
2022/09/22 07:33:36;;;;;;;5.15;4.63;;;;;;;;;;5056663;28;20120;-76
2022/09/22 07:36:07;;;;;;;6.90;4.30;;;;;;;;;;5029796;28;20052;-78
2022/09/22 07:38:38;;;;;;;6.78;4.28;;;;;;;;;;5054024;28;20604;-80
2022/09/22 07:41:05;;;;;;;7.78;3.92;;;;;;;;;;5056368;28;20428;-77
2022/09/22 07:43:32;;;;;;;5.88;3.97;;;;;;;;;;5071326;28;20060;-77
2022/09/22 07:45:58;;;;;;;7.80;4.25;;;;;;;;;;5038111;28;20048;-77
2022/09/22 07:48:45;;;;;;;7.38;3.80;;;;;;;;;;5057834;28;20091;-77
2022/09/22 07:51:20;;;;;;;5.50;3.75;;;;;;;;;;5074185;28;20044;-77
2022/09/22 07:53:48;;;;;;;5.35;3.90;;;;;;;;;;5073097;28;20078;-79
2022/09/22 07:56:15;;;;;;;5.07;3.78;;;;;;;;;;5058873;28;20049;-77
2022/09/22 07:58:46;;;;;;;7.50;3.63;;;;;;;;;;5063664;28;20052;-77
2022/09/22 08:01:13;;;;;;;7.13;3.72;;;;;;;;;;5057831;28;20080;-76
2022/09/22 08:03:39;;;;;;;9.02;3.92;;;;;;;;;;5056201;28;20127;-76
2022/09/22 08:06:10;;;;;;;6.82;3.70;;;;;;;;;;5058854;28;20048;-75
2022/09/22 08:08:52;;;;;;;6.78;4.00;;;;;;;;;;5055591;28;20048;-76
2022/09/22 08:11:19;;;;;;;5.93;3.55;;;;;;;;;;5055639;28;20045;-75
2022/09/22 08:13:52;;;;;;;4.90;3.15;;;;;;;;;;5038504;28;20489;-75
2022/09/22 08:16:18;;;;;;;6.95;3.08;;;;;;;;;;5071635;28;20385;-75
2022/09/22 08:18:48;;;;;;;4.82;3.00;;;;;;;;;;5075541;28;20047;-76
2022/09/22 08:21:18;;;;;;;6.60;3.40;;;;;;;;;;5075420;28;20040;-76
2022/09/22 08:23:44;;;;;;;4.40;2.78;;;;;;;;;;5057419;28;20465;-76
2022/09/22 08:26:11;;;;;;;7.55;3.42;;;;;;;;;;5072539;28;20076;-76
2022/09/22 08:28:37;;;;;;;4.97;2.90;;;;;;;;;;5078904;28;20119;-76
2022/09/22 08:31:03;;;;;;;3.45;2.42;;;;;;;;;;5079308;28;20044;-76
2022/09/22 08:33:32;;;;;;;4.72;2.50;;;;;;;;;;5078672;28;20469;-76
2022/09/22 08:36:02;;;;;;;3.67;2.30;;;;;;;;;;5071522;28;20543;-76
2022/09/22 08:38:29;;;;;;;3.95;2.35;;;;;;;;;;5078603;28;20072;-76
2022/09/22 08:41:14;;;;;;;4.05;2.45;;;;;;;;;;5079544;28;20071;-76
2022/09/22 08:43:51;;;;;;;3.38;2.20;;;;;;;;;;5078044;28;20087;-76
2022/09/22 08:46:18;;;;;;;5.05;2.65;;;;;;;;;;5070550;28;20102;-76
2022/09/22 08:54:17;;;;;;;6.22;3.08;;;;;;;;;;5077767;28;20484;-76
2022/09/22 08:56:53;;;;;;;4.07;2.65;;;;;;;;;;5056245;28;20102;-76
2022/09/22 08:59:32;;;;;;;4.68;2.50;;;;;;;;;;5058142;28;20055;-76
2022/09/22 09:01:59;;;;;;;4.93;2.50;;;;;;;;;;5057463;28;20041;-76
2022/09/22 09:04:25;;;;;;;4.38;2.47;;;;;;;;;;5058633;28;20375;-75
2022/09/22 09:07:07;;;;;;;5.13;2.50;;;;;;;;;;5076490;28;20495;-76
2022/09/22 09:09:42;;;;;;;3.63;2.30;;;;;;;;;;5077454;28;20053;-76
2022/09/22 09:12:14;;;;;;;4.35;2.70;;;;;;;;;;5078890;28;20056;-76
2022/09/22 09:14:57;;;;;;;4.97;2.63;;;;;;;;;;5077766;28;20043;-76
2022/09/22 09:17:33;;;;;;;5.32;3.97;;;;;;;;;;5077167;28;20043;-76
2022/09/22 09:20:15;;;;;;;7.93;3.70;;;;;;;;;;5079411;28;20041;-75
2022/09/22 09:22:43;;;;;;;4.88;3.15;;;;;;;;;;5078013;28;20094;-76
2022/09/22 09:25:15;;;;;;;5.53;3.58;;;;;;;;;;5070777;28;20048;-75
2022/09/22 09:27:43;;;;;;;4.68;3.22;;;;;;;;;;5077480;28;20420;-76
2022/09/22 09:30:13;;;;;;;5.28;3.15;;;;;;;;;;5077950;28;20134;-75
2022/09/22 09:32:55;;;;;;;5.82;3.60;;;;;;;;;;5070236;28;20056;-76
2022/09/22 09:35:25;;;;;;;6.55;3.80;;;;;;;;;;5045568;28;20040;-76
2022/09/22 09:37:53;;;;;;;4.20;3.67;;;;;;;;;;5058625;28;20385;-78
2022/09/22 09:40:20;;;;;;;5.97;3.90;;;;;;;;;;5056138;28;20045;-77
2022/09/22 09:42:55;;;;;;;4.70;3.10;;;;;;;;;;5039990;28;20069;-75
2022/09/22 09:45:24;;;;;;;4.35;3.00;;;;;;;;;;5064658;28;20449;-82
2022/09/22 09:48:09;;;;;;;10.32;3.58;;;;;;;;;;5058457;28;20497;-80
2022/09/22 09:50:36;;;;;;;8.18;3.65;;;;;;;;;;5077991;28;20080;-77
2022/09/22 09:53:02;;;;;;;5.25;3.20;;;;;;;;;;5059899;28;20049;-77
2022/09/22 09:55:29;;;;;;;7.68;3.10;;;;;;;;;;5070506;28;20036;-77
2022/09/22 09:58:06;;;;;;;8.43;3.20;;;;;;;;;;5043932;28;20436;-77
2022/09/22 10:00:33;;;;;;;5.13;2.83;;;;;;;;;;5058106;28;20045;-82
2022/09/22 10:03:02;;;;;;;8.05;3.25;;;;;;;;;;5058031;28;20046;-77
2022/09/22 10:05:30;;;;;;;7.57;3.80;;;;;;;;;;5070329;28;20055;-78
2022/09/22 10:07:57;;;;;;;4.63;3.38;;;;;;;;;;5079440;28;20100;-78
2022/09/22 10:10:32;;;;;;;6.28;3.50;;;;;;;;;;5067963;28;20059;-80
2022/09/22 10:13:04;;;;;;;5.00;3.72;;;;;;;;;;5075607;28;20621;-79
2022/09/22 10:15:34;;;;;;;5.07;3.28;;;;;;;;;;5075071;28;20040;-80
2022/09/22 10:18:00;;;;;;;4.95;3.60;;;;;;;;;;5075610;28;20083;-79
2022/09/22 10:20:27;;;;;;;5.82;3.30;;;;;;;;;;5075903;28;20087;-77
2022/09/22 10:22:53;;;;;;;8.05;3.33;;;;;;;;;;5083141;28;20102;-78
2022/09/22 10:25:32;;;;;;;4.85;3.38;;;;;;;;;;5079834;28;20044;-80
2022/09/22 10:28:02;;;;;;;5.40;3.20;;;;;;;;;;5023537;28;20045;-79
2022/09/22 10:30:32;;;;;;;7.05;3.58;;;;;;;;;;5055615;28;20500;-80
2022/09/22 10:33:04;;;;;;;4.80;3.47;;;;;;;;;;5039772;28;20049;-80
2022/09/22 10:35:32;;;;;;;7.78;3.65;;;;;;;;;;5057992;28;20052;-79
2022/09/22 10:38:06;;;;;;;7.93;3.65;;;;;;;;;;5063492;28;20076;-78
2022/09/22 10:40:33;;;;;;;7.85;4.10;;;;;;;;;;5055518;28;20413;-78
2022/09/22 10:42:59;;;;;;;6.05;3.90;;;;;;;;;;5055044;28;20503;-78
2022/09/22 10:45:38;;;;;;;4.85;3.10;;;;;;;;;;5075248;28;20044;-78
2022/09/22 10:48:07;;;;;;;5.25;3.67;;;;;;;;;;5074675;28;20044;-78
2022/09/22 10:50:36;;;;;;;7.43;3.65;;;;;;;;;;5074166;28;20048;-78
2022/09/22 10:53:08;;;;;;;7.00;4.07;;;;;;;;;;5074068;28;20052;-78
2022/09/22 10:55:40;;;;;;;7.60;4.20;;;;;;;;;;5066045;28;20048;-78
2022/09/22 10:58:06;;;;;;;5.22;4.10;;;;;;;;;;5036966;28;20045;-78
2022/09/22 11:00:33;;;;;;;5.28;3.78;;;;;;;;;;5036446;28;20041;-78
2022/09/22 11:03:00;;;;;;;7.65;4.63;;;;;;;;;;5056327;28;20041;-77
2022/09/22 11:14:22;;;;;;;8.25;3.50;;;;;;;;;;5053993;28;20080;-77
2022/09/22 11:17:07;;;;;;;19.98;6.90;;;;;;;;;;5054956;28;20045;-80
2022/09/22 11:19:33;;;;;;;5.32;3.70;;;;;;;;;;5054483;28;20048;-79
2022/09/22 11:22:09;;;;;;;6.22;3.63;;;;;;;;;;5036243;28;20045;-79
2022/09/22 11:24:50;;;;;;;7.40;3.90;;;;;;;;;;5056352;28;20512;-77
2022/09/22 11:27:25;;;;;;;5.15;3.78;;;;;;;;;;5053793;28;20033;-78
2022/09/22 11:29:54;;;;;;;7.40;5.03;;;;;;;;;;5054235;28;20041;-78
2022/09/22 11:32:35;;;;;;;6.85;4.90;;;;;;;;;;5059768;28;20051;-78
2022/09/22 11:35:16;;;;;;;6.50;5.03;;;;;;;;;;5058001;28;20453;-78
2022/09/22 11:37:51;;;;;;;5.88;4.60;;;;;;;;;;5053973;28;20099;-77
2022/09/22 11:40:32;;;;;;;5.07;4.65;;;;;;;;;;5054293;28;20144;-77
2022/09/22 11:43:17;;;;;;;6.70;5.60;;;;;;;;;;5054409;28;20120;-78
2022/09/22 11:45:48;;;;;;;9.40;5.80;;;;;;;;;;5053863;28;20037;-78
2022/09/22 11:48:25;;;;;;;6.95;6.28;;;;;;;;;;5053596;28;20052;-77
2022/09/22 11:51:08;;;;;;;7.53;5.90;;;;;;;;;;5053840;28;20045;-77
2022/09/22 11:53:43;;;;;;;7.97;6.35;;;;;;;;;;5038393;28;20036;-78
2022/09/22 11:56:11;;;;;;;8.35;6.43;;;;;;;;;;5074165;28;20123;-77
2022/09/22 11:58:43;;;;;;;9.13;6.32;;;;;;;;;;5072882;28;20161;-78
2022/09/22 12:01:14;;;;;;;10.30;7.05;;;;;;;;;;5073264;28;20043;-77
2022/09/22 12:03:40;;;;;;;8.50;6.82;;;;;;;;;;5072481;28;20044;-78
2022/09/22 12:06:14;;;;;;;7.47;6.32;;;;;;;;;;5058646;28;20041;-77
2022/09/22 12:08:44;;;;;;;7.30;6.07;;;;;;;;;;5035349;28;20055;-78
2022/09/22 12:11:12;;;;;;;7.75;5.75;;;;;;;;;;5053918;28;20048;-78
2022/09/22 12:13:42;;;;;;;7.55;5.85;;;;;;;;;;5052666;28;20115;-78
2022/09/22 12:16:17;;;;;;;6.90;6.00;;;;;;;;;;5053600;28;20040;-77
2022/09/22 12:18:47;;;;;;;10.60;6.40;;;;;;;;;;5053650;28;20188;-77
2022/09/22 12:21:19;;;;;;;6.80;6.10;;;;;;;;;;5053963;28;20067;-78
2022/09/22 12:23:48;;;;;;;9.45;6.55;;;;;;;;;;5057401;28;20044;-78
2022/09/22 12:26:24;;;;;;;10.40;6.55;;;;;;;;;;5073965;28;20090;-78
2022/09/22 12:28:50;;;;;;;7.53;6.25;;;;;;;;;;5073371;28;20481;-78
2022/09/22 12:31:19;;;;;;;7.65;6.10;;;;;;;;;;5073538;28;20072;-78
2022/09/22 12:33:49;;;;;;;9.45;6.63;;;;;;;;;;5069478;28;20207;-78
2022/09/22 12:36:16;;;;;;;7.75;6.68;;;;;;;;;;5053857;28;20123;-78
2022/09/22 12:38:43;;;;;;;8.27;6.63;;;;;;;;;;5035618;28;20068;-78
2022/09/22 12:41:15;;;;;;;9.30;6.10;;;;;;;;;;5052882;28;20041;-78
2022/09/22 12:43:41;;;;;;;9.05;6.80;;;;;;;;;;5055469;28;20508;-78
2022/09/22 12:46:17;;;;;;;11.48;7.60;;;;;;;;;;5053100;28;20405;-78
2022/09/22 12:48:43;;;;;;;;;;;;;;;;;;5053428;28;20065;-77
2022/09/22 12:51:16;;;;;;;15.55;8.73;;;;;;;;;;5053968;28;19924;-77
2022/09/22 12:53:43;;;;;;;10.52;6.75;;;;;;;;;;5056559;28;20085;-78
2022/09/22 12:56:28;;;;;;;9.13;6.40;;;;;;;;;;5053363;28;20052;-83
2022/09/22 12:58:54;;;;;;;7.85;6.45;;;;;;;;;;5052466;28;20060;-78
2022/09/22 13:01:31;;;;;;;8.63;6.95;;;;;;;;;;5052978;28;20052;-79
2022/09/22 13:04:26;;;;;;;7.70;6.93;;;;;;;;;;5052028;28;20485;-80
2022/09/22 13:06:53;;;;;;;10.25;7.93;;;;;;;;;;5032476;28;20057;-80
2022/09/22 13:09:21;;;;;;;9.02;7.13;;;;;;;;;;5035203;28;20086;-79
2022/09/22 13:12:06;;;;;;;8.70;7.28;;;;;;;;;;5037794;28;20045;-80
2022/09/22 13:14:52;;;;;;;11.73;7.63;;;;;;;;;;5055862;28;20072;-80
2022/09/22 13:17:48;;;;;;;11.00;7.95;;;;;;;;;;5056659;28;20079;-80
2022/09/22 13:20:20;;;;;;;12.83;8.00;;;;;;;;;;5035616;28;20059;-81
2022/09/22 13:22:47;;;;;;;9.27;7.22;;;;;;;;;;5055977;28;20127;-80
2022/09/22 13:25:14;;;;;;;9.90;6.90;;;;;;;;;;5068956;28;20116;-80
2022/09/22 13:27:41;;;;;;;9.13;7.10;;;;;;;;;;5076448;28;20045;-80
2022/09/22 13:30:12;;;;;;;10.02;7.25;;;;;;;;;;5075831;28;20049;-80
2022/09/22 13:32:39;;;;;;;9.57;7.85;;;;;;;;;;5071827;28;20510;-80
2022/09/22 13:35:22;;;;;;;10.18;7.32;;;;;;;;;;5059686;28;20110;-80
2022/09/22 13:37:49;;;;;;;8.98;7.18;;;;;;;;;;5037954;28;20037;-80
2022/09/22 13:40:15;;;;;;;11.65;8.07;;;;;;;;;;5055784;28;20131;-80
2022/09/22 13:42:41;;;;;;;10.77;7.90;;;;;;;;;;5056156;28;20052;-80
2022/09/22 13:45:12;;;;;;;12.32;7.90;;;;;;;;;;5055718;28;20124;-80
2022/09/22 13:47:42;;;;;;;11.02;7.75;;;;;;;;;;5069560;28;20044;-80
2022/09/22 13:50:12;;;;;;;9.38;7.20;;;;;;;;;;5060791;28;20102;-80
2022/09/22 13:52:38;;;;;;;12.52;7.57;;;;;;;;;;5055830;28;20084;-80
2022/09/22 13:55:05;;;;;;;10.45;7.20;;;;;;;;;;5054079;28;20044;-80
2022/09/22 13:57:33;;;;;;;9.60;7.10;;;;;;;;;;5061920;28;20044;-82
2022/09/22 14:00:00;;;;;;;10.00;7.55;;;;;;;;;;5075779;28;20044;-81
2022/09/22 14:02:27;;;;;;;9.50;7.03;;;;;;;;;;5080052;28;20067;-82
2022/09/22 14:04:56;;;;;;;10.27;6.60;;;;;;;;;;5078328;28;20048;-79
2022/09/22 14:07:23;;;;;;;10.63;8.23;;;;;;;;;;5044182;28;20040;-81
2022/09/22 14:09:50;;;;;;;15.98;8.25;;;;;;;;;;5058104;28;20050;-81
2022/09/22 14:12:16;;;;;;;9.70;6.85;;;;;;;;;;5068972;28;20043;-84
2022/09/22 14:14:42;;;;;;;9.80;7.22;;;;;;;;;;5073296;28;20472;-82
2022/09/22 14:17:20;;;;;;;11.15;7.55;;;;;;;;;;5067781;28;20044;-78
2022/09/22 14:20:01;;;;;;;21.60;10.25;;;;;;;;;;5030174;28;20447;-80
2022/09/22 14:22:28;;;;;;;9.20;6.40;;;;;;;;;;5034419;28;20052;-80
2022/09/22 14:24:55;;;;;;;8.80;6.93;;;;;;;;;;5035357;28;20048;-80
2022/09/22 14:27:36;;;;;;;16.75;8.02;;;;;;;;;;5036791;28;20529;-80
2022/09/22 14:30:03;;;;;;;7.90;7.10;;;;;;;;;;5046571;28;20076;-81
2022/09/22 14:32:33;;;;;;;9.75;6.65;;;;;;;;;;5037904;28;20117;-82
2022/09/22 14:35:01;;;;;;;11.60;7.13;;;;;;;;;;5035820;28;20056;-79
2022/09/22 14:37:30;;;;;;;8.20;6.10;;;;;;;;;;5034663;28;20059;-80
2022/09/22 14:39:57;;;;;;;11.02;6.65;;;;;;;;;;5039933;28;20037;-80
2022/09/22 14:42:26;;;;;;;9.75;6.00;;;;;;;;;;5054762;28;20123;-82
2022/09/22 14:44:52;;;;;;;8.45;6.15;;;;;;;;;;5051277;28;20124;-81
2022/09/22 14:47:29;;;;;;;7.30;5.63;;;;;;;;;;5054590;28;20037;-81
2022/09/22 14:50:15;;;;;;;6.88;5.90;;;;;;;;;;5047920;28;20497;-81
2022/09/22 14:53:08;;;;;;;7.80;5.88;;;;;;;;;;5041445;28;20075;-81
2022/09/22 14:55:36;;;;;;;9.93;6.55;;;;;;;;;;5038025;28;20059;-81
2022/09/22 14:58:07;;;;;;;7.88;5.60;;;;;;;;;;5054317;28;20061;-81
2022/09/22 15:03:37;;;;;;;7.78;6.03;;;;;;;;;;5031950;28;20049;-80
2022/09/22 15:06:11;;;;;;;10.07;5.05;;;;;;;;;;5030540;28;20049;-81
2022/09/22 15:08:38;;;;;;;7.03;4.72;;;;;;;;;;5014394;28;20046;-81
2022/09/22 15:11:04;;;;;;;5.32;4.53;;;;;;;;;;5012082;28;20069;-81
2022/09/22 15:13:36;;;;;;;7.57;4.43;;;;;;;;;;5005791;28;20045;-82
2022/09/22 15:16:03;;;;;;;8.38;4.68;;;;;;;;;;5014971;28;20046;-81
2022/09/22 15:18:29;;;;;;;8.68;4.10;;;;;;;;;;5014861;28;20475;-80